Time;durP1;ratioP1;P1;durP2;ratioP2;P2;SDS_P1;SDS_P2;PMS_P1;PMS_P2;Temp;Humidity;BMP_temperature;BMP_pressure;BME280_temperature;BME280_humidity;BME280_pressure;Samples;Min_cycle;Max_cycle;Signal;HPM_P1;HPM_P2
2022/01/10 00:02:06;;;;;;;88.80;39.22;;;;;;;-1.46;100.00;101030.75;5306763;28;20010;-85
2022/01/10 00:04:37;;;;;;;108.47;40.67;;;;;;;-1.63;100.00;101001.78;5323042;27;20078;-86
2022/01/10 00:07:09;;;;;;;109.53;43.22;;;;;;;-1.37;100.00;101045.22;5346775;27;20099;-85
2022/01/10 00:09:40;;;;;;;124.05;48.97;;;;;;;-1.37;100.00;101042.63;5346448;27;20097;-85
2022/01/10 00:12:14;;;;;;;105.82;43.85;;;;;;;-1.51;100.00;101040.53;5344469;27;20465;-85
2022/01/10 00:14:45;;;;;;;94.05;40.65;;;;;;;-1.51;100.00;101045.78;5343527;27;20024;-86
2022/01/10 00:17:17;;;;;;;106.80;43.53;;;;;;;-1.39;100.00;101060.16;5346077;27;20035;-85
2022/01/10 00:19:48;;;;;;;100.88;42.13;;;;;;;-1.69;100.00;101034.28;5346807;27;20100;-85
2022/01/10 00:22:20;;;;;;;114.57;44.53;;;;;;;-1.62;100.00;101050.59;5345061;27;20027;-85
2022/01/10 00:24:51;;;;;;;104.85;41.72;;;;;;;-1.71;100.00;101054.41;5344848;27;20016;-85
2022/01/10 00:27:25;;;;;;;96.47;42.00;;;;;;;-1.53;100.00;101072.00;5344391;27;20024;-85
2022/01/10 00:29:57;;;;;;;104.47;41.30;;;;;;;-1.67;100.00;101066.44;5340974;27;20035;-85
2022/01/10 00:32:28;;;;;;;109.95;43.17;;;;;;;-1.61;100.00;101062.78;5344025;27;20019;-85
2022/01/10 00:35:00;;;;;;;104.55;40.67;;;;;;;-1.68;100.00;101056.91;5341800;27;20073;-85
2022/01/10 00:37:33;;;;;;;122.10;46.15;;;;;;;-1.52;100.00;101070.25;5344628;27;20019;-85
2022/01/10 00:40:05;;;;;;;111.45;44.75;;;;;;;-1.62;100.00;101071.50;5344915;27;20024;-85
2022/01/10 00:42:37;;;;;;;127.93;46.03;;;;;;;-1.57;100.00;101082.66;5346002;27;20036;-86
2022/01/10 00:45:17;;;;;;;112.65;45.80;;;;;;;-1.57;100.00;101078.28;5345306;27;20364;-85
2022/01/10 00:47:49;;;;;;;121.55;47.80;;;;;;;-1.55;100.00;101084.28;5341718;27;20077;-85
2022/01/10 00:50:27;;;;;;;109.18;46.25;;;;;;;-1.56;100.00;101086.97;5343022;27;20122;-85
2022/01/10 00:52:58;;;;;;;117.13;46.92;;;;;;;-1.64;100.00;101105.56;5344011;27;20031;-85
2022/01/10 00:55:29;;;;;;;165.82;52.92;;;;;;;-1.55;100.00;101109.59;5345359;27;20024;-85
2022/01/10 00:58:01;;;;;;;151.75;53.40;;;;;;;-1.54;100.00;101101.72;5344256;27;20043;-85
2022/01/10 01:00:32;;;;;;;168.73;54.75;;;;;;;-1.45;100.00;101105.72;5343445;27;20099;-86
2022/01/10 01:03:04;;;;;;;155.20;52.45;;;;;;;-1.44;100.00;101117.88;5343536;27;20027;-85
2022/01/10 01:05:40;;;;;;;131.73;50.53;;;;;;;-1.49;100.00;101118.97;5345793;27;20069;-85
2022/01/10 01:08:13;;;;;;;152.77;55.05;;;;;;;-1.44;100.00;101125.75;5337575;27;20552;-85
2022/01/10 01:24:07;;;;;;;201.65;60.45;;;;;;;-1.28;100.00;101162.69;5342014;27;20028;-85
2022/01/10 01:26:42;;;;;;;153.30;53.63;;;;;;;-1.42;100.00;101159.69;5324808;27;20387;-85
2022/01/10 01:29:16;;;;;;;159.32;55.88;;;;;;;-1.34;100.00;101160.28;5344814;27;20471;-85
2022/01/10 01:31:48;;;;;;;184.45;56.45;;;;;;;-1.31;100.00;101170.63;5324160;27;20475;-85
2022/01/10 01:34:21;;;;;;;197.02;63.25;;;;;;;-1.18;100.00;101178.84;5345700;27;20022;-85
2022/01/10 01:36:55;;;;;;;172.70;60.17;;;;;;;-1.01;100.00;101179.06;5345521;27;20023;-89
2022/01/10 01:39:29;;;;;;;190.60;59.95;;;;;;;-1.09;100.00;101175.88;5344981;27;20039;-85
2022/01/10 01:42:16;;;;;;;167.68;59.15;;;;;;;-1.09;100.00;101185.50;5319056;27;20172;-85
2022/01/10 01:44:48;;;;;;;148.13;55.63;;;;;;;-1.29;100.00;101184.50;5341593;27;20035;-86
2022/01/10 01:47:20;;;;;;;171.23;57.13;;;;;;;-1.22;100.00;101203.47;5343919;27;20019;-85
2022/01/10 01:49:51;;;;;;;166.75;54.90;;;;;;;-1.39;100.00;101191.00;5345573;27;20024;-85
2022/01/10 01:52:23;;;;;;;131.25;49.80;;;;;;;-1.49;100.00;101200.97;5340088;27;20102;-85
2022/01/10 01:54:56;;;;;;;136.40;52.83;;;;;;;-1.30;100.00;101213.34;5325679;27;20028;-85
2022/01/10 01:57:28;;;;;;;150.05;52.90;;;;;;;-1.25;100.00;101214.03;5342012;27;20031;-85
2022/01/10 02:00:00;;;;;;;172.70;57.47;;;;;;;-1.16;100.00;101218.91;5318432;27;20019;-85
2022/01/10 02:02:31;;;;;;;164.45;58.55;;;;;;;-1.01;100.00;101220.13;5323749;27;20024;-85
2022/01/10 02:05:03;;;;;;;166.63;57.53;;;;;;;-1.02;100.00;101221.00;5341816;27;20043;-85
2022/01/10 02:07:34;;;;;;;161.35;56.88;;;;;;;-1.08;100.00;101222.09;5339693;27;20556;-84
2022/01/10 02:10:07;;;;;;;154.18;55.60;;;;;;;-1.17;100.00;101220.69;5336068;27;20054;-85
2022/01/10 02:12:38;;;;;;;130.40;52.60;;;;;;;-1.29;100.00;101228.16;5344415;27;20122;-85
2022/01/10 02:15:25;;;;;;;137.35;50.75;;;;;;;-1.39;100.00;101222.41;5320406;27;20131;-85
2022/01/10 02:17:59;;;;;;;141.23;51.00;;;;;;;-1.40;100.00;101237.25;5345018;27;20028;-85
2022/01/10 02:20:32;;;;;;;127.65;49.30;;;;;;;-1.40;100.00;101239.03;5339287;27;20032;-84
2022/01/10 02:23:03;;;;;;;141.02;53.35;;;;;;;-1.36;100.00;101230.16;5339685;27;20039;-85
2022/01/10 02:25:35;;;;;;;139.90;51.53;;;;;;;-1.50;100.00;101230.66;5326243;27;20092;-85
2022/01/10 02:28:07;;;;;;;140.30;52.20;;;;;;;-1.24;100.00;101244.56;5323058;27;20024;-85
2022/01/10 02:30:39;;;;;;;118.95;52.10;;;;;;;-1.33;100.00;101243.13;5342465;27;20027;-85
2022/01/10 02:33:10;;;;;;;130.32;54.17;;;;;;;-1.40;100.00;101246.88;5343305;27;20721;-85
2022/01/10 02:35:51;;;;;;;137.43;52.78;;;;;;;-1.48;100.00;101241.06;5319084;27;20020;-85
2022/01/10 02:38:22;;;;;;;131.73;52.70;;;;;;;-1.40;100.00;101257.34;5320063;27;20027;-85
2022/01/10 02:40:55;;;;;;;145.93;53.72;;;;;;;-1.39;100.00;101261.66;5318964;27;20035;-85
2022/01/10 02:43:26;;;;;;;128.52;54.58;;;;;;;-1.34;100.00;101278.91;5344870;27;20024;-85
2022/01/10 02:45:58;;;;;;;144.43;54.70;;;;;;;-1.22;100.00;101277.59;5344758;27;20023;-85
2022/01/10 02:48:29;;;;;;;148.77;54.08;;;;;;;-1.20;100.00;101281.00;5341338;27;20035;-85
2022/01/10 02:51:00;;;;;;;137.25;54.13;;;;;;;-1.18;100.00;101294.03;5341852;27;20480;-85
2022/01/10 02:53:32;;;;;;;143.93;54.50;;;;;;;-1.18;100.00;101294.88;5341498;27;21342;-85
2022/01/10 02:56:03;;;;;;;138.00;53.92;;;;;;;-0.82;100.00;101301.47;5326150;27;20388;-86
2022/01/10 02:58:35;;;;;;;159.48;57.78;;;;;;;-0.80;100.00;101305.72;5345055;27;20022;-86
2022/01/10 03:01:07;;;;;;;182.85;59.83;;;;;;;-0.63;100.00;101312.94;5323477;27;20115;-86
2022/01/10 03:03:38;;;;;;;166.13;58.30;;;;;;;-0.60;100.00;101314.56;5318032;27;20043;-86
2022/01/10 03:06:11;;;;;;;143.15;58.35;;;;;;;-0.68;100.00;101319.28;5303212;28;20029;-86
2022/01/10 03:08:42;;;;;;;158.63;56.53;;;;;;;-0.38;100.00;101320.69;5307631;28;20089;-86
2022/01/10 03:11:13;;;;;;;169.50;63.70;;;;;;;-0.21;100.00;101329.66;5320840;28;20037;-86
2022/01/10 03:13:45;;;;;;;173.55;63.05;;;;;;;-0.13;100.00;101327.56;5305679;28;20026;-86
2022/01/10 03:16:16;;;;;;;155.27;60.53;;;;;;;-0.11;100.00;101324.91;5326053;28;20056;-86
2022/01/10 03:18:47;;;;;;;175.38;63.38;;;;;;;-0.12;100.00;101324.06;5308573;28;20028;-86
2022/01/10 03:21:21;;;;;;;167.85;60.85;;;;;;;-0.08;100.00;101330.88;5305400;28;20484;-86
2022/01/10 03:23:53;;;;;;;164.80;61.95;;;;;;;-0.23;100.00;101334.09;5324827;28;20499;-83
2022/01/10 03:26:26;;;;;;;161.05;58.13;;;;;;;-0.10;100.00;101337.09;5309365;28;20026;-85
2022/01/10 03:28:58;;;;;;;164.00;56.58;;;;;;;-0.20;100.00;101352.34;5326990;28;20050;-85
2022/01/10 03:31:29;;;;;;;149.88;56.45;;;;;;;-0.22;100.00;101351.56;5309451;28;20047;-85
2022/01/10 03:34:01;;;;;;;162.95;61.55;;;;;;;-0.41;100.00;101356.66;5328835;28;20130;-85
2022/01/10 03:36:32;;;;;;;142.15;56.67;;;;;;;-0.52;100.00;101357.06;5330390;28;20059;-84
2022/01/10 03:39:04;;;;;;;142.18;53.70;;;;;;;-0.41;100.00;101362.75;5307569;28;20123;-85
2022/01/10 03:41:36;;;;;;;132.85;51.88;;;;;;;-0.38;100.00;101370.50;5323168;28;20104;-86
2022/01/10 03:44:07;;;;;;;135.95;54.55;;;;;;;-0.54;100.00;101371.13;5309094;28;20688;-85
2022/01/10 03:46:39;;;;;;;139.40;52.88;;;;;;;-0.41;100.00;101393.34;5326467;28;20388;-85
2022/01/10 03:49:10;;;;;;;135.18;52.35;;;;;;;-0.35;100.00;101379.16;5325820;28;20081;-85
2022/01/10 03:51:42;;;;;;;143.27;51.70;;;;;;;-0.30;100.00;101400.81;5306962;28;20059;-85
2022/01/10 03:54:14;;;;;;;133.50;55.17;;;;;;;-0.49;100.00;101406.75;5307429;28;20036;-85
2022/01/10 03:56:45;;;;;;;141.80;53.60;;;;;;;-0.65;100.00;101402.97;5326372;28;20020;-85
2022/01/10 03:59:16;;;;;;;125.30;50.75;;;;;;;-0.77;100.00;101405.16;5323973;28;20085;-85
2022/01/10 04:01:50;;;;;;;128.07;48.92;;;;;;;-0.68;100.00;101408.34;5307438;28;20032;-85
2022/01/10 04:04:21;;;;;;;123.68;49.08;;;;;;;-0.84;100.00;101408.91;5312344;27;20372;-85
2022/01/10 04:06:53;;;;;;;122.90;49.33;;;;;;;-0.87;100.00;101414.25;5342668;27;20024;-85
2022/01/10 04:09:24;;;;;;;118.57;50.03;;;;;;;-0.85;100.00;101416.81;5346052;27;20058;-85
2022/01/10 04:11:55;;;;;;;122.57;50.88;;;;;;;-0.83;100.00;101422.84;5339745;27;20023;-86
2022/01/10 04:14:27;;;;;;;124.80;49.90;;;;;;;-0.72;100.00;101425.94;5361642;27;20050;-85
2022/01/10 04:16:58;;;;;;;120.65;48.67;;;;;;;-0.74;100.00;101422.50;5342128;27;20032;-86
2022/01/10 04:19:29;;;;;;;127.90;48.92;;;;;;;-0.65;100.00;101424.81;5345750;27;20375;-86
2022/01/10 04:22:01;;;;;;;121.32;54.08;;;;;;;-0.72;100.00;101436.41;5344944;27;20031;-86
2022/01/10 04:24:33;;;;;;;124.25;50.65;;;;;;;-0.71;100.00;101416.31;5345762;27;20045;-86
2022/01/10 04:27:04;;;;;;;114.45;48.97;;;;;;;-0.40;100.00;101445.72;5341207;27;20184;-85
2022/01/10 04:29:36;;;;;;;126.22;56.03;;;;;;;-0.53;100.00;101436.59;5342394;27;20036;-85
2022/01/10 04:32:08;;;;;;;141.90;57.70;;;;;;;-0.44;100.00;101445.88;5345721;27;20126;-85
2022/01/10 04:34:40;;;;;;;134.13;59.10;;;;;;;-0.31;100.00;101451.53;5343445;27;20061;-86
2022/01/10 04:37:11;;;;;;;147.88;56.30;;;;;;;-0.31;100.00;101456.78;5345690;27;20028;-86
2022/01/10 04:39:42;;;;;;;135.70;57.50;;;;;;;-0.29;100.00;101468.91;5343154;27;20472;-86
2022/01/10 04:42:14;;;;;;;130.90;55.70;;;;;;;-0.32;100.00;101471.63;5348241;27;20055;-85
2022/01/10 04:44:45;;;;;;;146.82;57.90;;;;;;;-0.28;100.00;101467.13;5345484;27;20443;-85
2022/01/10 04:47:17;;;;;;;123.88;52.60;;;;;;;-0.24;100.00;101489.72;5344202;27;20049;-86
2022/01/10 04:52:31;;;;;;;132.85;54.40;;;;;;;-0.09;100.00;101498.78;5342818;27;20054;-85
2022/01/10 04:55:04;;;;;;;149.38;62.63;;;;;;;-0.29;100.00;101505.63;5344899;27;20376;-86
2022/01/10 04:57:35;;;;;;;135.00;54.33;;;;;;;-0.21;100.00;101518.44;5343091;27;20110;-86
2022/01/10 05:00:09;;;;;;;129.65;53.88;;;;;;;-0.26;100.00;101515.16;5346833;27;20023;-85
2022/01/10 05:02:46;;;;;;;129.77;54.45;;;;;;;-0.28;100.00;101509.09;5344545;27;21211;-85
2022/01/10 05:05:17;;;;;;;;;;;;;;;-0.27;100.00;101529.16;5340525;27;20043;-85
2022/01/10 05:07:49;;;;;;;130.00;57.97;;;;;;;-0.34;100.00;101525.91;5341485;27;19919;-86
2022/01/10 05:10:20;;;;;;;133.27;57.83;;;;;;;-0.29;100.00;101533.63;5345803;27;20085;-86
2022/01/10 05:12:51;;;;;;;129.80;56.38;;;;;;;-0.39;100.00;101546.19;5340097;27;20035;-85
2022/01/10 05:15:23;;;;;;;138.93;58.55;;;;;;;-0.35;100.00;101549.53;5338775;27;20080;-86
2022/01/10 05:17:54;;;;;;;148.35;60.30;;;;;;;-0.35;100.00;101557.41;5347883;27;20022;-86
2022/01/10 05:20:25;;;;;;;112.93;52.63;;;;;;;0.15;100.00;101563.44;5352182;27;20035;-86
2022/01/10 05:22:57;;;;;;;132.40;54.58;;;;;;;0.50;100.00;101563.00;5350610;27;20026;-85
2022/01/10 05:25:28;;;;;;;151.10;60.70;;;;;;;0.42;100.00;101560.69;5345420;27;20502;-85
2022/01/10 05:27:59;;;;;;;163.25;67.43;;;;;;;0.29;100.00;101570.78;5342219;27;20032;-85
2022/01/10 05:30:31;;;;;;;148.95;68.68;;;;;;;0.25;100.00;101571.81;5345268;27;20031;-86
2022/01/10 05:33:03;;;;;;;148.40;67.75;;;;;;;0.24;100.00;101572.72;5343168;27;20023;-86
2022/01/10 05:35:39;;;;;;;155.88;70.80;;;;;;;0.15;100.00;101578.31;5346134;27;20399;-86
2022/01/10 05:38:11;;;;;;;133.60;58.95;;;;;;;0.31;100.00;101589.94;5339318;27;20136;-86
2022/01/10 05:40:43;;;;;;;135.75;57.33;;;;;;;0.47;100.00;101603.31;5344578;27;20506;-85
2022/01/10 05:43:14;;;;;;;136.85;58.80;;;;;;;0.66;100.00;101606.09;5342147;27;20095;-86
2022/01/10 05:45:48;;;;;;;147.48;67.72;;;;;;;0.51;100.00;101607.56;5341594;27;20442;-85
2022/01/10 05:48:25;;;;;;;153.43;68.68;;;;;;;0.30;100.00;101600.50;5340449;27;20503;-85
2022/01/10 05:50:57;;;;;;;147.13;63.60;;;;;;;0.15;100.00;101610.66;5361363;27;20058;-85
2022/01/10 05:53:28;;;;;;;127.68;60.83;;;;;;;0.09;100.00;101605.66;5342264;27;20094;-86
2022/01/10 05:55:59;;;;;;;147.75;65.65;;;;;;;0.00;100.00;101619.09;5342255;27;20031;-85
2022/01/10 05:58:31;;;;;;;131.50;57.10;;;;;;;-0.02;100.00;101628.78;5341416;27;20020;-85
2022/01/10 06:01:03;;;;;;;131.13;58.88;;;;;;;-0.02;100.00;101623.53;5343418;27;20383;-85
2022/01/10 06:03:34;;;;;;;143.00;59.92;;;;;;;-0.16;100.00;101600.41;5343970;27;20034;-85
2022/01/10 06:06:06;;;;;;;137.45;58.78;;;;;;;-0.11;100.00;101622.09;5323705;28;20028;-86
2022/01/10 06:08:37;;;;;;;127.22;57.30;;;;;;;-0.12;100.00;101636.13;5302383;28;20036;-85
2022/01/10 06:11:09;;;;;;;136.55;59.35;;;;;;;-0.11;100.00;101643.06;5306260;27;20507;-85
2022/01/10 06:13:40;;;;;;;152.27;59.92;;;;;;;-0.16;100.00;101638.91;5313426;27;20024;-87
2022/01/10 06:16:13;;;;;;;133.45;55.97;;;;;;;-0.10;100.00;101644.78;5307944;28;20020;-85
2022/01/10 06:18:44;;;;;;;119.28;51.55;;;;;;;0.10;100.00;101649.31;5308555;28;20039;-85
2022/01/10 06:21:19;;;;;;;141.13;61.22;;;;;;;-0.05;100.00;101652.50;5308447;28;20020;-85
2022/01/10 06:23:50;;;;;;;135.48;61.70;;;;;;;-0.14;100.00;101647.56;5309389;28;20028;-85
2022/01/10 06:26:21;;;;;;;120.68;63.58;;;;;;;-0.15;100.00;101665.06;5308347;28;20047;-86
2022/01/10 06:28:53;;;;;;;130.90;57.47;;;;;;;-0.16;100.00;101678.25;5308862;28;20537;-85
2022/01/10 06:31:24;;;;;;;139.13;56.45;;;;;;;-0.17;100.00;101666.06;5307742;28;20032;-86
2022/01/10 06:33:56;;;;;;;118.38;55.05;;;;;;;-0.06;100.00;101690.97;5325429;28;20547;-85
2022/01/10 06:36:27;;;;;;;139.48;59.75;;;;;;;-0.05;100.00;101687.47;5307826;28;20024;-85
2022/01/10 06:38:59;;;;;;;126.15;57.55;;;;;;;-0.13;100.00;101696.50;5307619;28;20035;-85
2022/01/10 06:41:31;;;;;;;124.60;56.33;;;;;;;-0.06;100.00;101700.63;5326052;27;20055;-86
2022/01/10 06:44:02;;;;;;;144.57;58.00;;;;;;;-0.10;100.00;101701.66;5331058;28;20145;-86
2022/01/10 06:46:34;;;;;;;127.25;55.83;;;;;;;-0.18;100.00;101680.91;5330568;28;20028;-86
2022/01/10 06:49:08;;;;;;;127.20;61.70;;;;;;;-0.10;100.00;101707.75;5331296;28;20111;-85
2022/01/10 06:51:40;;;;;;;128.68;57.10;;;;;;;-0.08;100.00;101710.31;5332463;28;20028;-86
2022/01/10 06:54:11;;;;;;;143.82;58.22;;;;;;;-0.15;100.00;101711.44;5332160;28;20028;-85
2022/01/10 06:56:43;;;;;;;133.75;56.55;;;;;;;-0.20;100.00;101722.91;5312420;28;20035;-86
2022/01/10 06:59:14;;;;;;;119.90;56.15;;;;;;;-0.25;100.00;101710.88;5330583;27;20020;-86
2022/01/10 07:01:46;;;;;;;125.15;55.47;;;;;;;-0.20;100.00;101725.53;5325526;28;20028;-87
2022/01/10 07:04:18;;;;;;;119.97;58.45;;;;;;;-0.31;100.00;101713.72;5320534;27;20039;-86
2022/01/10 07:06:49;;;;;;;122.93;57.15;;;;;;;-0.17;100.00;101752.59;5349575;27;20464;-85
2022/01/10 07:09:21;;;;;;;117.68;55.10;;;;;;;-0.15;100.00;101749.00;5351002;27;20066;-85
2022/01/10 07:11:53;;;;;;;126.07;57.97;;;;;;;-0.17;100.00;101757.84;5349301;27;20016;-85
2022/01/10 07:14:24;;;;;;;121.78;56.05;;;;;;;-0.07;100.00;101767.09;5349910;27;20046;-85
2022/01/10 07:16:56;;;;;;;127.63;55.25;;;;;;;-0.15;100.00;101774.38;5349284;27;20063;-85
2022/01/10 07:19:27;;;;;;;117.32;55.78;;;;;;;-0.08;100.00;101768.00;5349831;27;20028;-86
2022/01/10 07:21:59;;;;;;;118.78;53.13;;;;;;;-0.01;100.00;101773.00;5349456;27;20297;-86
2022/01/10 07:24:32;;;;;;;117.60;58.03;;;;;;;-0.11;100.00;101784.69;5350843;27;20395;-86
2022/01/10 07:27:06;;;;;;;117.55;57.83;;;;;;;-0.15;100.00;101785.72;5366208;27;20028;-87
2022/01/10 07:29:49;;;;;;;124.57;56.95;;;;;;;-0.15;100.00;101803.22;5339439;27;20055;-86
2022/01/10 07:32:20;;;;;;;114.20;49.85;;;;;;;-0.08;100.00;101795.09;5345649;27;20460;-86
2022/01/10 07:34:52;;;;;;;117.05;55.72;;;;;;;-0.16;100.00;101799.72;5342556;27;20160;-87
2022/01/10 07:37:24;;;;;;;112.32;56.78;;;;;;;-0.17;100.00;101808.50;5350131;27;20024;-86
2022/01/10 07:40:01;;;;;;;131.82;60.35;;;;;;;-0.21;100.00;101806.88;5351434;27;20024;-86
2022/01/10 07:42:38;;;;;;;134.40;55.83;;;;;;;-0.32;100.00;101824.72;5348916;27;20023;-87
2022/01/10 07:45:27;;;;;;;124.35;53.42;;;;;;;-0.34;100.00;101832.63;5353271;27;20020;-87
2022/01/10 07:48:10;;;;;;;115.38;53.08;;;;;;;-0.37;100.00;101835.34;5338811;27;20468;-88
2022/01/10 07:50:42;;;;;;;120.60;51.63;;;;;;;-0.27;100.00;101843.81;5327930;28;20066;-87
2022/01/10 07:53:16;;;;;;;121.43;55.63;;;;;;;-0.40;100.00;101859.91;5329819;27;20024;-87
2022/01/10 07:55:51;;;;;;;121.07;57.35;;;;;;;-0.41;100.00;101859.94;5330362;27;20024;-86
2022/01/10 07:58:28;;;;;;;128.27;53.00;;;;;;;-0.34;100.00;101863.25;5342766;27;20024;-86
2022/01/10 08:01:13;;;;;;;146.48;57.40;;;;;;;-0.39;100.00;101872.13;5336049;27;20024;-88
2022/01/10 08:03:55;;;;;;;129.00;54.40;;;;;;;-0.40;100.00;101870.41;5336458;27;20118;-88
2022/01/10 08:06:28;;;;;;;122.45;55.00;;;;;;;-0.43;100.00;101880.13;5290221;28;20025;-88
2022/01/10 08:09:08;;;;;;;126.78;54.03;;;;;;;-0.39;100.00;101889.59;5290569;28;20036;-87
2022/01/10 08:11:59;;;;;;;;;;;;;;;;;;;;;
2022/01/10 08:15:03;;;;;;;142.63;53.35;;;;;;;-0.34;100.00;101889.47;5307355;28;41764;-87
2022/01/10 08:17:43;;;;;;;138.18;51.13;;;;;;;-0.30;100.00;101896.31;5308499;28;20021;-86
2022/01/10 08:20:45;;;;;;;138.30;55.30;;;;;;;-0.27;100.00;101907.56;5289197;28;20045;-87
2022/01/10 08:23:21;;;;;;;127.93;53.63;;;;;;;-0.22;100.00;101916.16;5290232;28;20020;-88
2022/01/10 08:25:58;;;;;;;123.97;53.38;;;;;;;-0.18;100.00;101916.09;5303666;28;20024;-87
2022/01/10 08:28:42;;;;;;;126.05;52.97;;;;;;;-0.13;100.00;101919.41;5308865;28;20039;-86
2022/01/10 08:31:39;;;;;;;;;;;;;;;;;;;;;
2022/01/10 08:34:14;;;;;;;116.50;48.55;;;;;;;0.09;100.00;101935.34;5328774;28;41074;-87
2022/01/10 08:36:59;;;;;;;;;;;;;;;;;;;;;
2022/01/10 08:39:34;;;;;;;134.30;55.50;;;;;;;0.26;100.00;101947.94;5328899;28;40278;-87
2022/01/10 08:42:06;;;;;;;129.60;54.85;;;;;;;0.19;100.00;101939.38;5311095;28;20028;-87
2022/01/10 08:44:42;;;;;;;135.23;53.10;;;;;;;0.35;100.00;101942.38;5310594;28;20023;-86
2022/01/10 08:47:19;;;;;;;124.63;52.85;;;;;;;0.55;100.00;101975.88;5312111;28;20085;-87
2022/01/10 08:50:00;;;;;;;124.97;51.20;;;;;;;0.72;100.00;101967.44;5304577;28;20970;-87
2022/01/10 08:52:31;;;;;;;126.85;52.97;;;;;;;0.65;100.00;101982.53;5301890;28;20027;-85
2022/01/10 08:55:04;;;;;;;122.90;54.60;;;;;;;0.70;100.00;101990.25;5329841;28;20031;-87
2022/01/10 08:57:36;;;;;;;105.63;48.75;;;;;;;0.55;100.00;101979.34;5334625;28;20127;-86
2022/01/10 09:00:11;;;;;;;92.78;44.28;;;;;;;0.56;100.00;101999.47;5315055;28;20028;-85
2022/01/10 09:02:48;;;;;;;95.80;43.28;;;;;;;0.59;100.00;102003.75;5318055;28;20028;-86
2022/01/10 09:05:20;;;;;;;95.22;43.28;;;;;;;0.43;100.00;101984.16;5340503;27;20100;-86
2022/01/10 09:07:52;;;;;;;87.82;41.25;;;;;;;0.66;100.00;102014.91;5350781;27;20015;-86
2022/01/10 09:10:25;;;;;;;88.82;41.58;;;;;;;0.55;100.00;101991.63;5349620;27;20023;-87
2022/01/10 09:13:06;;;;;;;88.55;39.58;;;;;;;0.57;100.00;101993.28;5350305;27;20023;-87
2022/01/10 09:15:41;;;;;;;78.45;37.67;;;;;;;0.72;100.00;102026.09;5348254;27;20110;-86
2022/01/10 09:18:13;;;;;;;80.25;38.05;;;;;;;0.71;100.00;102026.13;5348956;27;20022;-87
2022/01/10 09:20:55;;;;;;;78.38;37.85;;;;;;;0.74;100.00;102021.63;5350893;27;20019;-86
2022/01/10 09:23:32;;;;;;;75.90;36.00;;;;;;;0.77;100.00;102027.69;5347265;27;20038;-87
2022/01/10 09:26:04;;;;;;;;;;;;;;;0.95;100.00;102029.72;5349021;27;20043;-87
2022/01/10 09:28:35;;;;;;;83.18;38.67;;;;;;;0.84;100.00;102002.94;5370312;27;19911;-87
2022/01/10 09:31:10;;;;;;;82.63;37.92;;;;;;;1.04;100.00;102029.41;5371873;27;20152;-86
2022/01/10 09:33:42;;;;;;;81.65;38.70;;;;;;;1.06;100.00;102032.81;5369540;27;20115;-87
2022/01/10 09:36:16;;;;;;;84.45;39.28;;;;;;;1.29;100.00;102031.19;5361083;27;20032;-85
2022/01/10 09:39:09;;;;;;;86.85;39.38;;;;;;;1.48;100.00;102029.63;5347538;27;20020;-85
2022/01/10 09:41:41;;;;;;;77.53;36.10;;;;;;;1.31;100.00;102035.50;5347178;27;20035;-85
2022/01/10 09:44:16;;;;;;;77.20;36.95;;;;;;;1.51;100.00;102055.81;5347165;27;20012;-85
2022/01/10 09:46:53;;;;;;;63.05;32.72;;;;;;;1.38;100.00;102053.66;5348584;27;20023;-84
2022/01/10 09:49:25;;;;;;;64.78;31.77;;;;;;;1.42;100.00;102064.03;5350036;27;20031;-85
2022/01/10 09:52:02;;;;;;;58.55;30.42;;;;;;;1.36;100.00;102058.97;5350051;27;20012;-86
2022/01/10 09:54:34;;;;;;;52.88;30.00;;;;;;;1.27;100.00;102043.53;5349344;27;20367;-86
2022/01/10 09:57:08;;;;;;;50.75;28.20;;;;;;;1.34;100.00;102044.19;5347382;27;20031;-86
2022/01/10 09:59:42;;;;;;;46.33;28.23;;;;;;;1.42;100.00;102074.56;5349379;27;20020;-85
2022/01/10 10:02:16;;;;;;;41.33;25.75;;;;;;;1.30;100.00;102057.41;5348844;27;20024;-85
2022/01/10 10:04:57;;;;;;;47.60;26.33;;;;;;;1.62;100.00;102087.00;5338877;27;20068;-86
2022/01/10 10:07:37;;;;;;;48.70;27.45;;;;;;;2.14;100.00;102086.88;5309258;28;20123;-85
2022/01/10 10:10:13;;;;;;;50.13;27.08;;;;;;;2.33;100.00;102073.88;5309005;28;20044;-86
2022/01/10 10:12:47;;;;;;;54.22;29.23;;;;;;;3.15;100.00;102103.06;5326756;28;20020;-86
2022/01/10 10:15:26;;;;;;;58.10;31.98;;;;;;;3.48;100.00;102110.50;5307347;28;20031;-85
2022/01/10 10:17:57;;;;;;;41.67;26.52;;;;;;;3.49;100.00;102117.50;5310964;28;20020;-84
2022/01/10 10:20:29;;;;;;;39.58;22.75;;;;;;;3.46;100.00;102103.59;5330515;28;20024;-85
2022/01/10 10:23:04;;;;;;;38.58;22.17;;;;;;;3.63;100.00;102087.88;5330694;28;20040;-85
2022/01/10 10:25:35;;;;;;;30.85;19.95;;;;;;;4.20;100.00;102139.94;5330821;28;20013;-85
2022/01/10 10:28:09;;;;;;;29.75;19.60;;;;;;;4.37;100.00;102147.09;5331743;28;20081;-86
2022/01/10 10:30:48;;;;;;;25.67;18.42;;;;;;;4.37;100.00;102118.06;5326824;28;20056;-85
2022/01/10 10:33:23;;;;;;;29.52;18.48;;;;;;;4.34;100.00;102125.16;5307393;28;20075;-86
2022/01/10 10:35:57;;;;;;;28.00;18.35;;;;;;;3.97;100.00;102104.88;5312403;28;20052;-85
2022/01/10 10:38:32;;;;;;;27.88;18.05;;;;;;;4.11;100.00;102138.56;5312401;28;20062;-86
2022/01/10 10:41:18;;;;;;;27.75;17.58;;;;;;;4.24;100.00;102131.78;5312052;28;20024;-86
2022/01/10 10:43:55;;;;;;;26.58;15.88;;;;;;;4.53;100.00;102151.59;5312610;28;20443;-87
2022/01/10 10:46:30;;;;;;;24.33;17.13;;;;;;;4.50;100.00;102120.03;5290752;28;20029;-84
2022/01/10 10:49:04;;;;;;;23.52;16.67;;;;;;;4.78;100.00;102112.59;5289995;28;20040;-85
2022/01/10 10:51:36;;;;;;;26.10;16.75;;;;;;;5.21;100.00;102143.09;5290079;28;20020;-85
2022/01/10 10:54:19;;;;;;;24.88;17.35;;;;;;;5.42;100.00;102132.38;5307075;28;20020;-86
2022/01/10 10:56:53;;;;;;;23.65;16.83;;;;;;;5.25;100.00;102138.50;5329783;28;20032;-85
2022/01/10 10:59:29;;;;;;;24.45;16.52;;;;;;;4.78;100.00;102139.03;5330297;28;20032;-86
2022/01/10 11:02:03;;;;;;;22.58;15.93;;;;;;;4.67;100.00;102134.25;5311649;28;20728;-85
2022/01/10 11:04:38;;;;;;;24.30;16.60;;;;;;;4.54;100.00;102142.75;5323266;27;20051;-85
2022/01/10 11:07:11;;;;;;;23.65;16.27;;;;;;;4.41;100.00;102159.25;5351027;27;20023;-85
2022/01/10 11:09:42;;;;;;;25.13;17.55;;;;;;;4.63;100.00;102159.97;5351249;27;20115;-85
2022/01/10 11:12:16;;;;;;;25.63;16.38;;;;;;;5.35;100.00;102168.84;5350540;27;20042;-86
2022/01/10 11:14:48;;;;;;;25.98;17.05;;;;;;;7.64;100.00;102166.19;5349731;27;20453;-85
2022/01/10 11:17:40;;;;;;;23.13;14.07;;;;;;;9.53;100.00;102174.72;5349757;27;20045;-86
2022/01/10 11:21:02;;;;;;;20.75;14.65;;;;;;;12.36;100.00;102177.31;5329943;28;20032;-88
2022/01/10 11:24:03;;;;;;;17.85;11.93;;;;;;;13.76;100.00;102184.63;5309893;28;20032;-88
2022/01/10 11:26:45;;;;;;;17.60;11.63;;;;;;;14.24;100.00;102188.56;5325271;27;20043;-87
2022/01/10 11:29:22;;;;;;;19.70;12.15;;;;;;;14.17;94.54;102187.41;5329218;27;20028;-87
2022/01/10 11:31:58;;;;;;;17.42;11.82;;;;;;;15.10;94.02;102188.16;5329331;28;20032;-86
2022/01/10 11:34:30;;;;;;;16.38;12.13;;;;;;;14.61;76.79;102190.72;5347444;27;20054;-86
2022/01/10 11:37:13;;;;;;;19.40;12.00;;;;;;;15.38;78.78;102194.56;5350675;27;20019;-87
2022/01/10 11:39:55;;;;;;;16.45;12.38;;;;;;;16.06;79.58;102196.34;5348112;27;20020;-88
2022/01/10 11:42:32;;;;;;;15.63;11.80;;;;;;;16.56;66.43;102204.09;5344280;27;20082;-87
2022/01/10 11:45:13;;;;;;;16.52;12.00;;;;;;;16.92;74.43;102196.16;5348965;27;20047;-87
2022/01/10 11:48:22;;;;;;;16.35;11.27;;;;;;;17.56;58.10;102201.47;5344837;27;20047;-86
2022/01/10 11:51:15;;;;;;;13.70;11.27;;;;;;;16.70;53.15;102200.06;5348510;27;20403;-86